SAS2TF ESSA-EKCH
Flight info
| Callsign | SAS2TF |
|---|---|
| Flight time | 0h 59m |
| Altitude | 34000 |
| Route | PETEV N872 ELPAX DCT TOKSI N872 ERNOV |
| Aircraft | A319/M-SDE3FGHIRWY/LB1 |
Departure
| Time | 2026-05-04 15:32 |
|---|---|
| Airport | Stockholm-Arlanda Airport (ESSA) |
Arrival
| Time | 2026-05-04 16:31 |
|---|---|
| Airport | Copenhagen Kastrup Airport (EKCH) |
| Time | Latitude | Longitude | Altitude | Speed | Heading |
|---|---|---|---|---|---|
| 2026-05-04 15:04 | 59.65383 | 17.93037 | 112 ft | 0 kts | 191° |
| 2026-05-04 15:05 | 59.65365 | 17.92954 | 111 ft | 0 kts | 139° |
| 2026-05-04 15:24 | 59.65373 | 17.92940 | 112 ft | 4 kts | 139° |
| 2026-05-04 15:24 | 59.65396 | 17.92870 | 112 ft | 3 kts | 70° |
| 2026-05-04 15:25 | 59.65390 | 17.92836 | 110 ft | 0 kts | 70° |
| 2026-05-04 15:28 | 59.65390 | 17.92837 | 110 ft | 0 kts | 70° |
| 2026-05-04 15:29 | 59.65399 | 17.92885 | 109 ft | 7 kts | 69° |
| 2026-05-04 15:30 | 59.65675 | 17.92456 | 103 ft | 24 kts | 346° |
| 2026-05-04 15:30 | 59.65928 | 17.92232 | 113 ft | 15 kts | 283° |
| 2026-05-04 15:31 | 59.65442 | 17.91942 | 107 ft | 93 kts | 190° |
| 2026-05-04 15:31 | 59.64622 | 17.91644 | 130 ft | 142 kts | 195° |
| 2026-05-04 15:32 | 59.61773 | 17.90514 | 1770 ft | 140 kts | 213° |
| 2026-05-04 15:32 | 59.60621 | 17.87740 | 2901 ft | 129 kts | 241° |
| 2026-05-04 15:33 | 59.59600 | 17.84466 | 3557 ft | 161 kts | 241° |
| 2026-05-04 15:34 | 59.57575 | 17.77403 | 4744 ft | 233 kts | 245° |
| 2026-05-04 15:34 | 59.56814 | 17.74496 | 5575 ft | 243 kts | 242° |
| 2026-05-04 15:34 | 59.54504 | 17.69376 | 7447 ft | 253 kts | 230° |
| 2026-05-04 15:35 | 59.52048 | 17.64359 | 9457 ft | 256 kts | 231° |
| 2026-05-04 15:35 | 59.50795 | 17.61800 | 10100 ft | 269 kts | 231° |
| 2026-05-04 15:35 | 59.49449 | 17.59038 | 10496 ft | 288 kts | 231° |
| 2026-05-04 15:36 | 59.46524 | 17.53066 | 11587 ft | 311 kts | 230° |
| 2026-05-04 15:36 | 59.45031 | 17.50041 | 12357 ft | 314 kts | 230° |
| 2026-05-04 15:36 | 59.43507 | 17.46952 | 13132 ft | 317 kts | 230° |
| 2026-05-04 15:37 | 59.41954 | 17.43853 | 13865 ft | 320 kts | 228° |
| 2026-05-04 15:37 | 59.40320 | 17.40863 | 14544 ft | 323 kts | 226° |
| 2026-05-04 15:37 | 59.38623 | 17.37937 | 15213 ft | 326 kts | 225° |
| 2026-05-04 15:37 | 59.36895 | 17.35022 | 15895 ft | 329 kts | 225° |
| 2026-05-04 15:38 | 59.35149 | 17.32096 | 16578 ft | 332 kts | 225° |
| 2026-05-04 15:38 | 59.33389 | 17.29146 | 17259 ft | 334 kts | 225° |
| 2026-05-04 15:38 | 59.31619 | 17.26159 | 17933 ft | 337 kts | 225° |
| 2026-05-04 15:38 | 59.29835 | 17.23133 | 18449 ft | 341 kts | 226° |
| 2026-05-04 15:39 | 59.28059 | 17.20112 | 19016 ft | 345 kts | 226° |
| 2026-05-04 15:39 | 59.26244 | 17.17018 | 19607 ft | 348 kts | 226° |
| 2026-05-04 15:39 | 59.22571 | 17.10758 | 20784 ft | 353 kts | 226° |
| 2026-05-04 15:40 | 59.20710 | 17.07595 | 21339 ft | 356 kts | 226° |
| 2026-05-04 15:40 | 59.18829 | 17.04415 | 21876 ft | 359 kts | 226° |
| 2026-05-04 15:40 | 59.17571 | 17.02309 | 22225 ft | 361 kts | 225° |
| 2026-05-04 15:40 | 59.14999 | 16.98050 | 22925 ft | 365 kts | 225° |
| 2026-05-04 15:41 | 59.13078 | 16.94891 | 23399 ft | 368 kts | 225° |
| 2026-05-04 15:41 | 59.11113 | 16.91673 | 23806 ft | 371 kts | 225° |
| 2026-05-04 15:41 | 59.09134 | 16.88435 | 24206 ft | 374 kts | 225° |
| 2026-05-04 15:41 | 59.07138 | 16.85167 | 24569 ft | 377 kts | 225° |
| 2026-05-04 15:42 | 59.05121 | 16.81867 | 24924 ft | 381 kts | 225° |
| 2026-05-04 15:42 | 59.03085 | 16.78541 | 25306 ft | 385 kts | 226° |
| 2026-05-04 15:42 | 59.01028 | 16.75185 | 25699 ft | 387 kts | 226° |
| 2026-05-04 15:42 | 58.98955 | 16.71807 | 26099 ft | 390 kts | 226° |
| 2026-05-04 15:43 | 58.96871 | 16.68411 | 26484 ft | 393 kts | 226° |
| 2026-05-04 15:43 | 58.94767 | 16.64989 | 26854 ft | 396 kts | 226° |
| 2026-05-04 15:43 | 58.92674 | 16.61593 | 27212 ft | 399 kts | 226° |
| 2026-05-04 15:43 | 58.90535 | 16.58130 | 27570 ft | 402 kts | 226° |
| 2026-05-04 15:44 | 58.88380 | 16.54644 | 27932 ft | 405 kts | 226° |
| 2026-05-04 15:44 | 58.86211 | 16.51135 | 28285 ft | 408 kts | 226° |
| 2026-05-04 15:44 | 58.84022 | 16.47605 | 28617 ft | 411 kts | 226° |
| 2026-05-04 15:44 | 58.81831 | 16.44085 | 29211 ft | 407 kts | 226° |
| 2026-05-04 15:45 | 58.79657 | 16.40609 | 29802 ft | 406 kts | 226° |
| 2026-05-04 15:45 | 58.77479 | 16.37130 | 30156 ft | 408 kts | 226° |
| 2026-05-04 15:45 | 58.75290 | 16.33637 | 30489 ft | 410 kts | 226° |
| 2026-05-04 15:45 | 58.73120 | 16.30176 | 30814 ft | 411 kts | 225° |
| 2026-05-04 15:46 | 58.70940 | 16.26713 | 31696 ft | 396 kts | 225° |
| 2026-05-04 15:46 | 58.68887 | 16.23479 | 32874 ft | 369 kts | 226° |
| 2026-05-04 15:46 | 58.66944 | 16.20420 | 33372 ft | 355 kts | 226° |
| 2026-05-04 15:46 | 58.65063 | 16.17436 | 33632 ft | 348 kts | 226° |
| 2026-05-04 15:47 | 58.63209 | 16.14477 | 33741 ft | 345 kts | 226° |
| 2026-05-04 15:47 | 58.59532 | 16.08619 | 33756 ft | 343 kts | 226° |
| 2026-05-04 15:48 | 58.55869 | 16.02817 | 33752 ft | 345 kts | 226° |
| 2026-05-04 15:48 | 58.50295 | 15.94052 | 33745 ft | 346 kts | 226° |
| 2026-05-04 15:49 | 58.46570 | 15.88231 | 33752 ft | 346 kts | 226° |
| 2026-05-04 15:49 | 58.42850 | 15.82418 | 33753 ft | 345 kts | 226° |
| 2026-05-04 15:50 | 58.39153 | 15.76649 | 33749 ft | 345 kts | 226° |
| 2026-05-04 15:50 | 58.35431 | 15.70870 | 33730 ft | 345 kts | 226° |
| 2026-05-04 15:51 | 58.31685 | 15.65074 | 33714 ft | 349 kts | 225° |
| 2026-05-04 15:51 | 58.27916 | 15.59264 | 33720 ft | 349 kts | 225° |
| 2026-05-04 15:52 | 58.24170 | 15.53495 | 33719 ft | 349 kts | 225° |
| 2026-05-04 15:52 | 58.20394 | 15.47698 | 33732 ft | 349 kts | 225° |
| 2026-05-04 15:53 | 58.16614 | 15.41900 | 33741 ft | 350 kts | 225° |
| 2026-05-04 15:53 | 58.12826 | 15.36120 | 33742 ft | 350 kts | 225° |
| 2026-05-04 15:54 | 58.09022 | 15.30329 | 33742 ft | 355 kts | 225° |
| 2026-05-04 15:54 | 58.05103 | 15.24366 | 33754 ft | 374 kts | 224° |
| 2026-05-04 15:55 | 58.00944 | 15.18056 | 33756 ft | 392 kts | 224° |
| 2026-05-04 15:55 | 57.96650 | 15.11588 | 33756 ft | 397 kts | 224° |
| 2026-05-04 15:56 | 57.92328 | 15.05110 | 33756 ft | 397 kts | 224° |
| 2026-05-04 15:56 | 57.88037 | 14.98678 | 33766 ft | 397 kts | 224° |
| 2026-05-04 15:57 | 57.83713 | 14.92215 | 33767 ft | 397 kts | 224° |
| 2026-05-04 15:57 | 57.79387 | 14.85767 | 33773 ft | 397 kts | 224° |
| 2026-05-04 15:58 | 57.75059 | 14.79340 | 33772 ft | 397 kts | 224° |
| 2026-05-04 15:58 | 57.70753 | 14.72970 | 33778 ft | 397 kts | 224° |
| 2026-05-04 15:59 | 57.66421 | 14.66566 | 33782 ft | 397 kts | 224° |
| 2026-05-04 15:59 | 57.62088 | 14.60183 | 33624 ft | 396 kts | 223° |
| 2026-05-04 16:00 | 57.59930 | 14.57025 | 33347 ft | 393 kts | 223° |
| 2026-05-04 16:00 | 57.57786 | 14.53893 | 33066 ft | 391 kts | 223° |
| 2026-05-04 16:00 | 57.55651 | 14.50768 | 32798 ft | 389 kts | 223° |
| 2026-05-04 16:00 | 57.53526 | 14.47660 | 32544 ft | 388 kts | 223° |
| 2026-05-04 16:01 | 57.51438 | 14.44611 | 32285 ft | 386 kts | 223° |
| 2026-05-04 16:01 | 57.49329 | 14.41539 | 32025 ft | 384 kts | 223° |
| 2026-05-04 16:01 | 57.47226 | 14.38481 | 31771 ft | 383 kts | 223° |
| 2026-05-04 16:01 | 57.45135 | 14.35446 | 31514 ft | 381 kts | 223° |
| 2026-05-04 16:02 | 57.43047 | 14.32421 | 31262 ft | 380 kts | 223° |
| 2026-05-04 16:02 | 57.40931 | 14.29350 | 31012 ft | 394 kts | 223° |
| 2026-05-04 16:02 | 57.36468 | 14.22858 | 30492 ft | 416 kts | 222° |
| 2026-05-04 16:03 | 57.34207 | 14.19597 | 30247 ft | 418 kts | 222° |
| 2026-05-04 16:03 | 57.31911 | 14.16308 | 30003 ft | 417 kts | 222° |
| 2026-05-04 16:03 | 57.29618 | 14.13036 | 29735 ft | 416 kts | 221° |
| 2026-05-04 16:03 | 57.27332 | 14.09778 | 29319 ft | 414 kts | 222° |
| 2026-05-04 16:04 | 57.25063 | 14.06544 | 28863 ft | 410 kts | 222° |
| 2026-05-04 16:04 | 57.20590 | 14.00155 | 27984 ft | 403 kts | 222° |
| 2026-05-04 16:04 | 57.18382 | 13.97004 | 27553 ft | 400 kts | 222° |
| 2026-05-04 16:05 | 57.16220 | 13.93924 | 27134 ft | 396 kts | 222° |
| 2026-05-04 16:05 | 57.14030 | 13.90804 | 26693 ft | 405 kts | 222° |
| 2026-05-04 16:05 | 57.09499 | 13.84360 | 25873 ft | 412 kts | 222° |
| 2026-05-04 16:06 | 57.07230 | 13.81151 | 25478 ft | 410 kts | 222° |
| 2026-05-04 16:06 | 57.01275 | 13.72767 | 24448 ft | 401 kts | 222° |
| 2026-05-04 16:07 | 56.98333 | 13.68636 | 23940 ft | 396 kts | 222° |
| 2026-05-04 16:07 | 56.91864 | 13.59577 | 22732 ft | 391 kts | 222° |
| 2026-05-04 16:08 | 56.89704 | 13.56559 | 22255 ft | 389 kts | 222° |
| 2026-05-04 16:08 | 56.83333 | 13.47681 | 20996 ft | 380 kts | 221° |
| 2026-05-04 16:09 | 56.79182 | 13.41921 | 20191 ft | 375 kts | 221° |
| 2026-05-04 16:09 | 56.75047 | 13.36201 | 19405 ft | 371 kts | 221° |
| 2026-05-04 16:10 | 56.70964 | 13.30563 | 18657 ft | 366 kts | 221° |
| 2026-05-04 16:11 | 56.64933 | 13.22278 | 17654 ft | 361 kts | 221° |
| 2026-05-04 16:11 | 56.62934 | 13.19539 | 17313 ft | 359 kts | 221° |
| 2026-05-04 16:12 | 56.56994 | 13.11408 | 16318 ft | 354 kts | 221° |
| 2026-05-04 16:12 | 56.51169 | 13.03479 | 15324 ft | 338 kts | 221° |
| 2026-05-04 16:13 | 56.47526 | 12.98545 | 14696 ft | 324 kts | 221° |
| 2026-05-04 16:13 | 56.43941 | 12.93684 | 14269 ft | 321 kts | 221° |
| 2026-05-04 16:14 | 56.40366 | 12.88848 | 13865 ft | 321 kts | 221° |
| 2026-05-04 16:14 | 56.36800 | 12.84036 | 13450 ft | 319 kts | 221° |
| 2026-05-04 16:15 | 56.31514 | 12.76930 | 12671 ft | 315 kts | 221° |
| 2026-05-04 16:16 | 56.28008 | 12.72233 | 12106 ft | 313 kts | 221° |
| 2026-05-04 16:16 | 56.22807 | 12.65278 | 11248 ft | 307 kts | 221° |
| 2026-05-04 16:17 | 56.19472 | 12.60843 | 10681 ft | 290 kts | 221° |
| 2026-05-04 16:18 | 56.14232 | 12.56155 | 9925 ft | 282 kts | 200° |
| 2026-05-04 16:18 | 56.12343 | 12.55280 | 9590 ft | 279 kts | 200° |
| 2026-05-04 16:19 | 56.06640 | 12.54242 | 8477 ft | 291 kts | 163° |
| 2026-05-04 16:19 | 56.03067 | 12.57765 | 7752 ft | 293 kts | 154° |
| 2026-05-04 16:20 | 55.99143 | 12.65178 | 7344 ft | 276 kts | 115° |
| 2026-05-04 16:20 | 55.97646 | 12.71268 | 7097 ft | 259 kts | 115° |
| 2026-05-04 16:21 | 55.95578 | 12.79798 | 6472 ft | 246 kts | 115° |
| 2026-05-04 16:22 | 55.94227 | 12.85318 | 5902 ft | 243 kts | 115° |
| 2026-05-04 16:22 | 55.92218 | 12.93522 | 5095 ft | 238 kts | 115° |
| 2026-05-04 16:23 | 55.89698 | 13.00437 | 4605 ft | 210 kts | 150° |
| 2026-05-04 16:24 | 55.84526 | 13.00878 | 3435 ft | 185 kts | 216° |
| 2026-05-04 16:25 | 55.82564 | 12.98032 | 2845 ft | 182 kts | 226° |
| 2026-05-04 16:26 | 55.78760 | 12.92052 | 2513 ft | 196 kts | 226° |
| 2026-05-04 16:26 | 55.75643 | 12.87172 | 2508 ft | 200 kts | 226° |
| 2026-05-04 16:27 | 55.73549 | 12.83897 | 2508 ft | 201 kts | 225° |
| 2026-05-04 16:28 | 55.70527 | 12.79185 | 2159 ft | 181 kts | 226° |
| 2026-05-04 16:28 | 55.67956 | 12.75182 | 1490 ft | 147 kts | 227° |
| 2026-05-04 16:29 | 55.65101 | 12.70736 | 729 ft | 133 kts | 227° |
| 2026-05-04 16:30 | 55.63038 | 12.67531 | 203 ft | 133 kts | 226° |
| 2026-05-04 16:31 | 55.61739 | 12.65513 | 25 ft | 94 kts | 221° |
| 2026-05-04 16:31 | 55.61223 | 12.64437 | 24 ft | 17 kts | 255° |
| 2026-05-04 16:32 | 55.61311 | 12.64144 | 26 ft | 9 kts | 32° |
| 2026-05-04 16:33 | 55.61481 | 12.64341 | 24 ft | 17 kts | 33° |
| 2026-05-04 16:33 | 55.61695 | 12.64556 | 24 ft | 25 kts | 10° |
| 2026-05-04 16:34 | 55.62071 | 12.64452 | 24 ft | 28 kts | 350° |
| 2026-05-04 16:34 | 55.62215 | 12.64404 | 24 ft | 21 kts | 351° |
| 2026-05-04 16:35 | 55.62555 | 12.64505 | 24 ft | 4 kts | 15° |
| 2026-05-04 16:35 | 55.62566 | 12.64511 | 24 ft | 0 kts | 16° |